Time;durP1;ratioP1;P1;durP2;ratioP2;P2;SDS_P1;SDS_P2;PMS_P1;PMS_P2;Temp;Humidity;BMP_temperature;BMP_pressure;BME280_temperature;BME280_humidity;BME280_pressure;Samples;Min_cycle;Max_cycle;Signal;HPM_P1;HPM_P2
2024/04/21 00:01:01;;;;;;;7.33;0.90;;;11.40;99.90;;;12.05;57.98;101656.81;6531246;21;102184;-35
2024/04/21 00:03:27;;;;;;;2.50;1.00;;;11.30;99.90;;;12.07;58.66;101662.94;6547725;21;100430;-35
2024/04/21 00:05:52;;;;;;;5.60;1.33;;;11.30;99.90;;;12.05;57.25;101650.66;6529986;21;118070;-34
2024/04/21 00:08:18;;;;;;;3.43;0.80;;;11.30;99.90;;;12.12;60.44;101655.72;6550523;21;95063;-35
2024/04/21 00:10:45;;;;;;;4.07;1.40;;;11.30;99.90;;;12.24;59.39;101653.69;6549042;21;101844;-34
2024/04/21 00:13:13;;;;;;;2.40;0.90;;;11.40;99.90;;;12.29;57.97;101657.06;6533870;21;94520;-34
2024/04/21 00:15:42;;;;;;;3.47;0.93;;;11.50;99.90;;;12.28;58.35;101652.69;6497508;21;104615;-36
2024/04/21 00:18:08;;;;;;;4.30;1.00;;;11.40;99.90;;;12.35;58.66;101657.78;6518015;21;98067;-35
2024/04/21 00:20:33;;;;;;;7.80;1.23;;;11.40;99.90;;;12.20;58.48;101643.19;6550462;21;93851;-35
2024/04/21 00:22:59;;;;;;;5.20;1.10;;;11.40;99.90;;;12.06;55.12;101642.69;6530188;21;116515;-35
2024/04/21 00:25:25;;;;;;;5.50;0.93;;;11.30;99.90;;;12.26;59.43;101646.56;6546377;21;123804;-35
2024/04/21 00:27:56;;;;;;;3.27;0.93;;;11.40;99.90;;;12.02;56.50;101643.69;6529445;21;108193;-34
2024/04/21 00:30:21;;;;;;;4.97;1.13;;;11.40;99.90;;;12.06;56.48;101644.47;6514924;21;93416;-34
2024/04/21 00:32:47;;;;;;;4.47;0.90;;;11.40;99.90;;;12.15;59.08;101639.81;6562948;21;115128;-35
2024/04/21 00:35:13;;;;;;;6.50;1.43;;;11.40;99.90;;;12.09;56.69;101639.94;6532134;21;118742;-35
2024/04/21 00:37:39;;;;;;;2.77;0.87;;;11.40;99.90;;;12.12;58.72;101633.72;6486163;21;94187;-34
2024/04/21 00:40:05;;;;;;;3.73;0.90;;;11.40;99.90;;;12.02;55.69;101633.09;6526808;21;93785;-34
2024/04/21 00:42:31;;;;;;;10.83;1.07;;;11.30;99.90;;;12.16;58.29;101630.09;6520800;21;96743;-38
2024/04/21 00:44:57;;;;;;;3.27;1.23;;;11.40;99.90;;;12.05;55.34;101633.00;6530114;21;97420;-34
2024/04/21 00:47:22;;;;;;;6.30;1.10;;;11.40;99.90;;;12.03;55.08;101633.97;6530046;21;93663;-35
2024/04/21 00:49:48;;;;;;;4.07;0.77;;;11.40;99.90;;;12.00;56.78;101629.59;6546638;21;93337;-37
2024/04/21 00:52:14;;;;;;;3.83;0.70;;;11.40;99.90;;;11.97;54.92;101624.41;6527794;21;111998;-34
2024/04/21 00:54:41;;;;;;;5.07;1.93;;;11.40;99.90;;;12.08;59.09;101632.94;6548195;21;115226;-34
2024/04/21 00:57:07;;;;;;;7.20;1.00;;;11.40;99.90;;;12.00;54.62;101631.38;6544595;21;102233;-34
2024/04/21 00:59:34;;;;;;;4.40;0.90;;;11.50;99.90;;;12.07;57.55;101625.91;6538227;21;96533;-35
2024/04/21 01:02:03;;;;;;;1.93;0.50;;;11.40;99.90;;;12.19;56.65;101617.66;6547068;21;114339;-37
2024/04/21 01:04:29;;;;;;;2.43;1.10;;;11.60;99.90;;;12.23;56.19;101617.56;6546218;21;100155;-35
2024/04/21 01:06:56;;;;;;;3.60;0.53;;;11.60;99.90;;;12.31;59.53;101623.53;6530113;21;93491;-36
2024/04/21 01:09:27;;;;;;;4.23;0.70;;;11.50;99.90;;;12.15;57.61;101623.03;6544117;21;100799;-34
2024/04/21 01:11:56;;;;;;;2.93;0.60;;;11.50;99.90;;;12.13;59.55;101617.78;6532557;21;95666;-36
2024/04/21 01:14:22;;;;;;;6.03;1.20;;;11.40;99.90;;;11.95;55.20;101631.50;6524146;21;95621;-33
2024/04/21 01:16:47;;;;;;;2.27;0.60;;;11.40;99.90;;;12.25;58.02;101613.09;6544219;21;93523;-33
2024/04/21 01:19:13;;;;;;;3.00;0.67;;;11.60;99.90;;;12.19;56.58;101614.13;6527767;21;107658;-36
2024/04/21 01:21:39;;;;;;;4.50;0.90;;;11.60;99.90;;;12.07;56.16;101614.47;6532816;21;122584;-35
2024/04/21 01:24:05;;;;;;;1.00;0.53;;;11.50;99.90;;;12.17;59.18;101600.09;6542996;21;96293;-36
2024/04/21 01:26:31;;;;;;;3.27;0.70;;;11.50;99.90;;;12.21;58.16;101601.72;6529927;21;93565;-36
2024/04/21 01:28:57;;;;;;;3.57;0.73;;;11.50;99.90;;;12.13;56.86;101604.56;6566098;21;93507;-34
2024/04/21 01:31:25;;;;;;;1.93;0.90;;;11.40;99.90;;;12.13;58.58;101603.69;6519094;21;121426;-35
2024/04/21 01:33:51;;;;;;;3.07;0.77;;;11.40;99.90;;;12.10;59.71;101604.66;6524583;21;97392;-36
2024/04/21 01:36:17;;;;;;;9.90;1.23;;;11.40;99.90;;;12.01;58.00;101599.63;6529300;21;93646;-35
2024/04/21 01:38:46;;;;;;;3.73;1.23;;;11.30;99.90;;;11.94;56.19;101610.41;6589305;21;93453;-35
2024/04/21 01:41:11;;;;;;;6.37;0.90;;;11.30;99.90;;;11.95;58.71;101605.06;6545780;21;98169;-36
2024/04/21 01:43:37;;;;;;;4.27;1.40;;;11.30;99.90;;;12.00;56.57;101608.44;6545180;21;123865;-36
2024/04/21 01:46:03;;;;;;;0.63;0.40;;;11.40;99.90;;;12.08;58.02;101606.47;6514411;21;96379;-36
2024/04/21 01:48:29;;;;;;;2.67;0.77;;;11.40;99.90;;;12.05;60.18;101601.28;6545185;21;106562;-34
2024/04/21 01:50:54;;;;;;;7.20;1.50;;;11.30;99.90;;;12.11;55.62;101598.47;6544814;21;110623;-36
2024/04/21 01:53:20;;;;;;;1.07;0.60;;;11.50;99.90;;;12.19;58.36;101593.84;6545934;21;93736;-36
2024/04/21 01:55:46;;;;;;;3.90;1.50;;;11.50;99.90;;;12.14;56.23;101585.13;6548171;21;94443;-36
2024/04/21 01:58:14;;;;;;;3.80;0.93;;;11.40;99.90;;;12.07;56.95;101588.00;6549325;21;107033;-35
2024/04/21 02:00:43;;;;;;;2.90;0.80;;;11.30;99.90;;;12.12;56.92;101586.09;6528293;21;127209;-36
2024/04/21 02:03:09;;;;;;;4.47;1.33;;;11.30;99.90;;;12.33;59.18;101584.66;6505703;21;95203;-35
2024/04/21 02:05:35;;;;;;;4.23;1.10;;;11.40;99.90;;;12.29;57.03;101593.56;6547918;21;99802;-34
2024/04/21 02:08:01;;;;;;;4.00;0.90;;;11.50;99.90;;;12.26;55.17;101583.06;6530182;21;93736;-37
2024/04/21 02:10:26;;;;;;;4.47;1.13;;;11.50;99.90;;;12.02;55.42;101590.78;6532473;21;118895;-35
2024/04/21 02:12:55;;;;;;;3.40;0.70;;;11.30;99.90;;;11.88;53.17;101592.94;6529845;21;99348;-36
2024/04/21 02:15:20;;;;;;;2.03;0.80;;;11.40;99.90;;;11.60;54.35;101590.09;6548847;21;104378;-35
2024/04/21 02:17:46;;;;;;;2.33;0.53;;;11.20;99.90;;;11.81;59.50;101586.06;6533172;21;93541;-36
2024/04/21 02:20:12;;;;;;;1.53;0.67;;;11.40;99.90;;;11.82;54.88;101587.78;6592454;21;95451;-36
2024/04/21 02:22:38;;;;;;;2.50;1.10;;;11.40;99.90;;;11.85;57.86;101587.69;6573838;21;111051;-36
2024/04/21 02:25:04;;;;;;;4.63;0.93;;;11.40;99.90;;;11.78;52.91;101596.69;6528772;21;97332;-35
2024/04/21 02:27:29;;;;;;;2.70;1.00;;;11.40;99.90;;;11.57;53.34;101588.41;6523506;21;96950;-33
2024/04/21 02:29:55;;;;;;;5.37;0.90;;;11.10;99.90;;;11.77;58.33;101593.16;6526671;21;100367;-34
2024/04/21 02:32:21;;;;;;;2.53;0.90;;;11.10;99.90;;;11.75;55.81;101592.34;6546039;21;97453;-35
2024/04/21 02:34:46;;;;;;;0.90;0.77;;;11.10;99.90;;;11.76;57.59;101593.22;6535320;21;101899;-36
2024/04/21 02:37:12;;;;;;;5.00;0.77;;;11.00;99.90;;;11.99;59.02;101595.28;6543211;21;93240;-35
2024/04/21 02:39:38;;;;;;;4.60;0.83;;;11.10;99.90;;;11.88;57.31;101596.44;6548483;21;102053;-35
2024/04/21 02:42:04;;;;;;;2.20;0.87;;;11.10;99.90;;;11.94;57.80;101602.47;6546321;21;120412;-36
2024/04/21 02:44:30;;;;;;;1.93;0.50;;;11.10;99.90;;;11.84;52.07;101588.59;6506448;21;93559;-36
2024/04/21 02:46:55;;;;;;;1.50;0.60;;;11.00;99.90;;;12.00;57.78;101595.22;6548360;21;93381;-33
2024/04/21 02:49:24;;;;;;;0.87;0.70;;;11.10;99.90;;;12.05;57.68;101596.00;6467614;21;94265;-35
2024/04/21 02:51:50;;;;;;;6.17;0.50;;;11.10;99.90;;;12.07;55.45;101594.16;6528692;21;94184;-38
2024/04/21 02:54:16;;;;;;;1.30;0.77;;;11.10;99.90;;;12.18;58.32;101596.53;6545686;21;93222;-35
2024/04/21 02:56:41;;;;;;;4.60;0.70;;;11.20;99.90;;;12.02;53.20;101590.78;6548888;21;94299;-34
2024/04/21 02:59:07;;;;;;;4.30;0.50;;;11.10;99.90;;;11.97;51.09;101595.31;6513244;21;97952;-39
2024/04/21 03:01:33;;;;;;;3.83;0.57;;;11.10;99.90;;;11.96;54.34;101593.56;6568165;21;120904;-36
2024/04/21 03:04:02;;;;;;;1.93;0.30;;;11.10;99.90;;;12.06;57.71;101597.72;6526917;21;93488;-36
2024/04/21 03:06:27;;;;;;;1.10;0.20;;;11.10;99.90;;;12.05;56.76;101603.06;6547136;21;94139;-35
2024/04/21 03:08:53;;;;;;;1.00;0.40;;;11.00;99.90;;;12.05;57.35;101590.69;6526284;21;118765;-34
2024/04/21 03:11:19;;;;;;;2.30;0.50;;;11.00;99.90;;;12.07;53.69;101588.88;6542309;21;111341;-33
2024/04/21 03:13:46;;;;;;;2.07;0.53;;;11.10;99.90;;;11.98;55.69;101594.41;6537919;21;97278;-35
2024/04/21 03:16:12;;;;;;;2.23;0.60;;;11.00;99.90;;;11.94;55.71;101589.25;6527681;21;93492;-35
2024/04/21 03:18:38;;;;;;;2.33;0.40;;;11.00;99.90;;;11.84;52.79;101583.31;6518513;21;114404;-35
2024/04/21 03:21:04;;;;;;;1.73;0.73;;;10.90;99.90;;;11.83;57.05;101589.53;6530568;21;96675;-36
2024/04/21 03:23:30;;;;;;;3.43;0.60;;;10.80;99.90;;;11.84;56.02;101581.53;6548147;21;101199;-35
2024/04/21 03:25:55;;;;;;;0.50;0.30;;;10.80;99.90;;;11.84;53.63;101580.69;6547994;21;93664;-36
2024/04/21 03:28:24;;;;;;;1.67;0.67;;;10.80;99.90;;;11.89;57.28;101573.50;6512291;21;122943;-36
2024/04/21 03:30:57;;;;;;;0.63;0.30;;;10.80;99.90;;;11.89;56.17;101568.22;6493990;21;96401;-34
2024/04/21 03:33:23;;;;;;;1.13;0.40;;;10.80;99.90;;;12.02;58.28;101574.06;6540997;21;94591;-37
2024/04/21 03:36:05;;;;;;;1.83;0.50;;;10.90;99.90;;;12.09;57.83;101576.47;6530547;21;99995;-36
2024/04/21 03:38:31;;;;;;;1.47;0.50;;;11.00;99.90;;;12.04;54.48;101573.09;6530196;21;101710;-34
2024/04/21 03:40:57;;;;;;;1.17;0.57;;;11.00;99.90;;;12.24;58.00;101574.31;6522587;21;108975;-35
2024/04/21 03:43:23;;;;;;;1.23;0.70;;;11.10;99.90;;;12.25;56.82;101573.41;6519395;21;95870;-34
2024/04/21 03:45:48;;;;;;;1.43;0.40;;;11.20;99.90;;;12.27;57.28;101575.09;6497020;21;109494;-34
2024/04/21 03:48:14;;;;;;;2.43;0.50;;;11.10;99.90;;;12.21;55.50;101575.28;6536963;21;94060;-35
2024/04/21 03:50:41;;;;;;;1.30;0.40;;;11.00;99.90;;;12.07;54.87;101573.00;6547339;21;124291;-35
2024/04/21 03:53:10;;;;;;;1.33;0.70;;;10.90;99.90;;;11.99;57.14;101577.63;6527549;21;93409;-35
2024/04/21 03:55:36;;;;;;;0.67;0.47;;;10.70;99.90;;;11.75;53.31;101572.97;6592089;21;93030;-35
2024/04/21 03:58:02;;;;;;;1.67;0.47;;;10.50;99.90;;;11.67;56.98;101574.94;6550632;21;105478;-35
2024/04/21 04:00:28;;;;;;;0.10;0.10;;;10.30;99.90;;;11.60;57.68;101569.81;6521637;21;94265;-35
2024/04/21 04:02:56;;;;;;;1.50;0.43;;;10.30;99.90;;;11.59;57.00;101569.88;6555550;21;101166;-34
2024/04/21 04:05:25;;;;;;;2.00;0.30;;;10.30;99.90;;;11.63;56.88;101567.09;6550645;21;96128;-36
2024/04/21 04:07:53;;;;;;;1.20;0.50;;;10.30;99.90;;;11.52;56.36;101558.56;6549495;21;95626;-33
2024/04/21 04:10:19;;;;;;;1.23;0.60;;;10.20;99.90;;;11.50;56.62;101562.16;6551593;21;95654;-34
2024/04/21 04:12:44;;;;;;;0.93;0.40;;;10.20;99.90;;;11.54;58.09;101561.16;6551878;21;101457;-35
2024/04/21 04:15:13;;;;;;;1.53;0.60;;;10.20;99.90;;;11.48;58.47;101566.63;6551197;21;97316;-34
2024/04/21 04:17:39;;;;;;;0.93;0.20;;;10.10;99.90;;;11.58;58.82;101563.72;6561610;21;98637;-35
2024/04/21 04:20:12;;;;;;;0.50;0.20;;;10.20;99.90;;;11.54;58.43;101562.03;6558344;21;94451;-33
2024/04/21 04:22:39;;;;;;;2.70;0.40;;;10.10;99.90;;;11.59;58.15;101557.50;6550292;21;93353;-36
2024/04/21 04:25:05;;;;;;;1.10;0.30;;;10.20;99.90;;;11.69;57.69;101565.19;6548145;21;95489;-36
2024/04/21 04:27:36;;;;;;;2.83;0.50;;;10.30;99.90;;;11.68;58.81;101574.03;6498602;21;94207;-34
2024/04/21 04:30:02;;;;;;;0.60;0.37;;;10.30;99.90;;;11.78;59.76;101580.81;6532772;21;121662;-35
2024/04/21 04:32:29;;;;;;;2.00;0.27;;;10.40;99.90;;;11.78;55.08;101576.41;6544826;21;101022;-35
2024/04/21 04:34:55;;;;;;;1.33;0.37;;;10.50;99.90;;;11.82;59.20;101571.94;6546403;21;101363;-34
2024/04/21 04:37:21;;;;;;;0.67;0.30;;;10.50;99.90;;;11.98;58.51;101573.25;6530355;21;95145;-39
2024/04/21 04:39:47;;;;;;;1.03;0.57;;;10.70;99.90;;;11.79;54.28;101572.00;6518868;21;94874;-35
2024/04/21 04:42:13;;;;;;;2.00;0.43;;;10.50;99.90;;;11.76;57.87;101572.94;6532796;21;94559;-35
2024/04/21 04:44:38;;;;;;;0.83;0.30;;;10.30;99.90;;;11.70;55.53;101577.50;6508039;21;94368;-36
2024/04/21 04:47:13;;;;;;;1.07;0.40;;;10.30;99.90;;;11.69;57.38;101575.75;6514936;21;114344;-33
2024/04/21 04:49:39;;;;;;;1.30;0.40;;;10.30;99.90;;;11.58;55.78;101574.28;6543153;21;98343;-35
2024/04/21 04:52:05;;;;;;;1.10;0.73;;;10.20;99.90;;;11.55;56.80;101571.69;6546101;21;95163;-35
2024/04/21 04:54:32;;;;;;;1.10;0.60;;;10.20;99.90;;;11.46;56.54;101564.00;6533166;21;99817;-32
2024/04/21 04:56:57;;;;;;;0.93;0.50;;;10.10;99.90;;;11.43;55.86;101565.84;6547009;21;97855;-34
2024/04/21 04:59:24;;;;;;;0.83;0.50;;;10.20;99.90;;;11.65;59.13;101564.41;6545235;21;94048;-35
2024/04/21 05:01:50;;;;;;;1.37;0.60;;;10.30;99.90;;;11.62;58.08;101568.00;6539802;21;107038;-35
2024/04/21 05:04:16;;;;;;;2.17;0.70;;;10.30;99.90;;;11.48;55.95;101562.19;6545091;21;105772;-36
2024/04/21 05:06:41;;;;;;;1.00;0.60;;;10.30;99.90;;;11.62;58.50;101569.78;6522414;21;118572;-34
2024/04/21 05:09:07;;;;;;;0.93;0.40;;;10.30;99.90;;;11.72;58.78;101570.41;6538519;21;95535;-36
2024/04/21 05:11:33;;;;;;;0.40;0.30;;;10.40;99.90;;;11.87;59.26;101580.63;6542120;21;93465;-35
2024/04/21 05:13:59;;;;;;;1.80;0.40;;;10.60;99.90;;;12.05;59.11;101580.13;6528200;21;93654;-36
2024/04/21 05:16:25;;;;;;;1.73;0.53;;;10.80;99.90;;;12.24;58.67;101584.91;6542088;21;118655;-37
2024/04/21 05:18:52;;;;;;;1.33;0.60;;;11.20;99.90;;;12.12;55.29;101581.69;6513077;21;93320;-35
2024/04/21 05:21:18;;;;;;;0.87;0.50;;;11.10;99.90;;;12.05;54.96;101585.41;6471260;21;107632;-34
2024/04/21 05:23:44;;;;;;;0.73;0.30;;;11.00;99.90;;;12.20;57.86;101585.00;6531785;21;93471;-34
2024/04/21 05:26:09;;;;;;;2.20;1.30;;;11.00;99.90;;;12.13;56.84;101582.53;6509089;21;100359;-35
2024/04/21 05:28:35;;;;;;;0.60;0.60;;;10.90;99.90;;;12.11;55.11;101590.53;6498109;21;95633;-37
2024/04/21 05:31:01;;;;;;;3.70;0.80;;;10.90;99.90;;;11.90;54.07;101589.34;6508116;21;97063;-36
2024/04/21 05:33:27;;;;;;;1.80;0.37;;;10.80;99.90;;;12.21;58.18;101597.31;6529839;21;94631;-35
2024/04/21 05:35:52;;;;;;;1.00;0.33;;;11.00;99.90;;;12.38;58.11;101595.97;6518389;21;95378;-34
2024/04/21 05:38:21;;;;;;;3.40;0.63;;;11.40;99.90;;;12.15;53.17;101604.53;6544276;21;101461;-35
2024/04/21 05:40:46;;;;;;;2.47;1.03;;;11.20;99.90;;;12.06;56.16;101605.66;6505182;21;93423;-36
2024/04/21 05:43:13;;;;;;;2.53;0.87;;;11.00;99.90;;;11.87;55.14;101601.78;6537213;21;101152;-35
2024/04/21 05:45:39;;;;;;;5.50;1.00;;;10.90;99.90;;;11.92;57.75;101610.44;6545722;21;102183;-34
2024/04/21 05:48:06;;;;;;;4.73;0.90;;;10.90;99.90;;;11.94;55.00;101607.75;6510936;21;113693;-35
2024/04/21 05:50:32;;;;;;;2.63;0.70;;;11.00;99.90;;;11.85;54.71;101603.56;6551113;21;93388;-35
2024/04/21 05:52:57;;;;;;;2.10;0.70;;;10.90;99.90;;;12.06;58.46;101605.66;6542837;21;93483;-33
2024/04/21 05:55:23;;;;;;;1.47;0.50;;;11.00;99.90;;;12.14;58.23;101603.66;6544784;21;104245;-35
2024/04/21 05:57:49;;;;;;;1.97;0.80;;;11.10;99.90;;;12.13;54.77;101601.06;6530734;21;103793;-35
2024/04/21 06:00:15;;;;;;;1.30;0.70;;;11.20;99.90;;;12.23;56.45;101599.03;6533300;21;93455;-34
2024/04/21 06:02:41;;;;;;;1.50;0.60;;;11.30;99.90;;;12.36;55.53;101611.03;6521917;21;103607;-35
2024/04/21 06:05:07;;;;;;;3.70;0.80;;;11.50;99.90;;;12.07;52.40;101611.81;6542591;21;94635;-35
2024/04/21 06:07:33;;;;;;;9.00;1.13;;;11.30;99.90;;;12.26;57.62;101626.28;6576611;21;112393;-34
2024/04/21 06:09:58;;;;;;;1.80;0.30;;;11.30;99.90;;;12.32;58.09;101623.47;6543147;21;110772;-36
2024/04/21 06:12:24;;;;;;;2.37;0.80;;;11.40;99.90;;;12.48;57.43;101626.56;6546683;21;93541;-34
2024/04/21 06:14:50;;;;;;;1.77;1.00;;;11.70;99.90;;;12.57;55.46;101631.56;6529745;21;103749;-36
2024/04/21 06:17:16;;;;;;;3.10;1.07;;;11.90;99.90;;;12.47;53.31;101628.34;6541155;21;95566;-36
2024/04/21 06:19:45;;;;;;;3.13;1.00;;;11.80;99.90;;;12.56;55.72;101624.53;6520775;21;98546;-35
2024/04/21 06:22:11;;;;;;;1.03;0.40;;;11.70;99.90;;;12.69;56.61;101620.63;6549931;21;93470;-35
2024/04/21 06:24:37;;;;;;;3.33;0.77;;;11.90;99.90;;;12.73;56.13;101626.69;6530544;21;102750;-34
2024/04/21 06:27:03;;;;;;;2.03;0.93;;;12.00;99.90;;;12.84;53.58;101624.59;6543705;21;94471;-33
2024/04/21 06:29:29;;;;;;;1.27;0.40;;;12.20;99.90;;;12.92;56.66;101637.63;6522501;21;97035;-35
2024/04/21 06:31:54;;;;;;;0.93;0.53;;;12.20;99.90;;;13.16;54.48;101636.00;6533743;21;99415;-33
2024/04/21 06:34:20;;;;;;;4.40;1.30;;;12.60;99.90;;;13.15;53.75;101632.50;6543317;21;120504;-35
2024/04/21 06:36:46;;;;;;;2.33;1.20;;;12.60;99.90;;;13.03;51.91;101643.50;6520640;21;94769;-35
2024/04/21 06:39:12;;;;;;;3.67;0.97;;;12.40;99.90;;;13.01;54.60;101642.63;6546701;21;93485;-40
2024/04/21 06:41:37;;;;;;;10.43;1.40;;;12.40;99.90;;;13.05;51.13;101645.16;6549984;21;93684;-34
2024/04/21 06:44:03;;;;;;;5.30;1.40;;;12.50;99.90;;;13.20;50.89;101646.53;6547459;21;112227;-35
2024/04/21 06:46:29;;;;;;;0.77;0.27;;;12.70;99.90;;;13.36;55.04;101647.78;6542820;21;93773;-35
2024/04/21 06:48:55;;;;;;;0.63;0.50;;;12.80;99.90;;;13.24;54.68;101645.50;6514684;21;105344;-34
2024/04/21 06:51:21;;;;;;;5.97;1.77;;;12.60;99.90;;;12.90;50.66;101645.63;6530698;21;100310;-35
2024/04/21 06:53:46;;;;;;;2.30;0.50;;;12.40;99.90;;;13.08;56.02;101649.50;6543844;21;93796;-36
2024/04/21 06:56:12;;;;;;;2.47;0.80;;;12.40;99.90;;;13.10;55.81;101652.97;6529157;21;99383;-35
2024/04/21 06:58:38;;;;;;;3.03;0.90;;;12.40;99.90;;;13.14;53.83;101654.59;6514899;21;93390;-32
2024/04/21 07:01:04;;;;;;;1.77;0.47;;;12.50;99.90;;;13.08;54.07;101658.31;6550262;21;106792;-35
2024/04/21 07:03:30;;;;;;;4.43;1.20;;;12.50;99.90;;;13.15;51.40;101664.28;6537037;21;100814;-35
2024/04/21 07:05:55;;;;;;;1.77;0.57;;;12.60;99.90;;;13.22;55.30;101657.06;6571170;21;109970;-35
2024/04/21 07:08:21;;;;;;;3.53;1.93;;;12.50;99.90;;;12.97;52.25;101664.84;6546901;21;105301;-34
2024/04/21 07:10:47;;;;;;;3.77;1.70;;;12.30;99.90;;;12.50;51.14;101661.78;6537283;21;101889;-34
2024/04/21 07:13:13;;;;;;;2.00;0.80;;;11.90;99.90;;;12.58;56.33;101667.72;6502093;21;100131;-36
2024/04/21 07:15:39;;;;;;;11.60;5.70;;;11.80;99.90;;;12.60;55.01;101662.41;6547576;21;97079;-34
2024/04/21 07:18:05;;;;;;;3.70;1.13;;;11.90;99.90;;;12.55;55.90;101659.88;6547099;21;93624;-35
2024/04/21 07:20:31;;;;;;;17.73;9.50;;;11.80;99.90;;;12.43;56.20;101658.41;6532125;21;98410;-35
2024/04/21 07:22:56;;;;;;;8.73;3.07;;;11.70;99.90;;;12.44;53.21;101659.28;6541305;21;120543;-35
2024/04/21 07:25:23;;;;;;;0.83;0.70;;;11.80;99.90;;;12.59;57.28;101668.59;6512269;21;105551;-33
2024/04/21 07:27:49;;;;;;;7.50;1.77;;;11.90;99.90;;;12.38;54.37;101662.13;6533180;21;93220;-33
2024/04/21 07:30:15;;;;;;;8.00;1.83;;;11.90;99.90;;;12.61;55.12;101665.00;6548398;21;93203;-33
2024/04/21 07:32:41;;;;;;;6.37;1.77;;;12.00;99.90;;;12.57;55.52;101668.63;6530465;21;101330;-35
2024/04/21 07:35:08;;;;;;;5.83;2.00;;;11.90;99.90;;;12.88;55.67;101673.94;6522287;21;95034;-35
2024/04/21 07:37:33;;;;;;;5.20;1.27;;;12.30;99.90;;;13.15;52.99;101666.94;6580565;21;93442;-34
2024/04/21 07:40:02;;;;;;;2.17;0.63;;;12.70;99.90;;;13.67;54.39;101670.66;6514909;21;93707;-34
2024/04/21 07:42:27;;;;;;;4.73;1.30;;;13.40;99.90;;;13.98;53.05;101676.66;6545034;21;98283;-34
2024/04/21 07:44:53;;;;;;;2.47;1.07;;;13.90;99.90;;;14.27;52.60;101682.75;6539739;21;102551;-34
2024/04/21 07:47:19;;;;;;;2.10;1.00;;;14.30;99.90;;;14.28;51.74;101681.84;6549541;21;94805;-34
2024/04/21 07:49:48;;;;;;;3.67;0.97;;;14.30;99.90;;;14.44;52.01;101685.72;6550909;21;93384;-35
2024/04/21 07:52:13;;;;;;;1.50;0.70;;;14.40;99.90;;;14.65;51.33;101694.72;6534755;21;110362;-33
2024/04/21 07:54:40;;;;;;;3.90;0.90;;;14.70;99.90;;;14.64;46.92;101686.81;6551205;21;108155;-36
2024/04/21 07:57:08;;;;;;;3.90;0.87;;;14.70;99.90;;;14.55;49.37;101694.19;6531463;21;93476;-39
2024/04/21 07:59:34;;;;;;;4.70;0.70;;;14.40;99.90;;;14.67;50.85;101692.88;6548522;21;93949;-35
2024/04/21 08:02:00;;;;;;;1.87;0.97;;;14.50;99.90;;;14.61;51.18;101702.84;6572465;21;114968;-35
2024/04/21 08:04:25;;;;;;;3.40;0.90;;;14.40;99.90;;;14.79;50.35;101696.88;6546479;21;101177;-34
2024/04/21 08:06:51;;;;;;;1.03;0.80;;;14.70;99.90;;;14.85;50.15;101701.94;6549364;21;94759;-35
2024/04/21 08:09:20;;;;;;;1.37;0.73;;;14.80;99.90;;;14.92;50.30;101703.47;6551551;21;104599;-36
2024/04/21 08:11:46;;;;;;;1.97;0.60;;;14.90;99.90;;;15.02;50.37;101712.81;6527264;21;99333;-34
2024/04/21 08:14:11;;;;;;;2.10;1.20;;;15.00;99.90;;;15.01;45.24;101719.06;6548760;21;116406;-33
2024/04/21 08:16:37;;;;;;;3.60;0.60;;;15.10;99.90;;;14.88;49.69;101713.31;6529556;21;101462;-35
2024/04/21 08:19:03;;;;;;;1.23;0.60;;;14.80;99.90;;;14.76;46.78;101718.25;6531252;21;94195;-36
2024/04/21 08:21:31;;;;;;;0.80;0.60;;;14.60;99.90;;;14.79;50.45;101723.44;6546066;21;96032;-34
2024/04/21 08:23:57;;;;;;;1.53;0.70;;;14.50;99.90;;;14.67;50.08;101734.50;6544332;21;101299;-35
2024/04/21 08:26:23;;;;;;;4.97;1.07;;;14.40;99.90;;;14.68;48.12;101730.91;6575876;21;101464;-36
2024/04/21 08:28:50;;;;;;;1.80;1.10;;;14.60;99.90;;;14.80;46.13;101733.13;6549764;21;93687;-36
2024/04/21 08:31:16;;;;;;;1.10;0.57;;;14.80;99.90;;;14.85;49.53;101741.78;6549892;21;93954;-34
2024/04/21 08:33:43;;;;;;;2.27;0.60;;;14.80;99.90;;;14.90;49.67;101750.50;6515211;21;117487;-39
2024/04/21 08:36:12;;;;;;;0.60;0.60;;;14.80;99.90;;;14.95;49.99;101751.19;6529836;21;93373;-35
2024/04/21 08:38:38;;;;;;;1.67;1.00;;;14.90;99.90;;;14.77;43.93;101757.16;6545156;21;98339;-36
2024/04/21 08:41:16;;;;;;;0.83;0.50;;;14.80;99.90;;;14.88;49.81;101760.28;6533598;21;113616;-35
2024/04/21 08:43:42;;;;;;;1.70;0.90;;;14.70;99.90;;;14.91;49.00;101759.31;6521916;21;98034;-33
2024/04/21 08:46:09;;;;;;;1.80;0.77;;;14.80;99.90;;;15.02;49.21;101771.28;6498795;21;100934;-35
2024/04/21 08:48:35;;;;;;;1.30;0.60;;;15.00;99.90;;;15.18;49.71;101775.09;6505511;21;93707;-34
2024/04/21 08:51:06;;;;;;;5.10;1.30;;;15.30;99.90;;;15.12;46.45;101775.34;6521223;21;111261;-35
2024/04/21 08:53:32;;;;;;;1.67;0.83;;;15.40;99.90;;;15.32;48.87;101777.25;6492922;21;99697;-35
2024/04/21 08:56:07;;;;;;;2.50;1.27;;;15.50;99.90;;;15.08;48.09;101784.34;6505073;21;103267;-35
2024/04/21 08:58:34;;;;;;;1.33;0.73;;;15.20;99.90;;;15.15;44.16;101785.84;6500915;21;93395;-34
2024/04/21 09:01:01;;;;;;;3.50;0.90;;;15.30;99.90;;;15.17;47.47;101778.69;6544972;21;94335;-34
2024/04/21 09:03:27;;;;;;;2.10;1.00;;;15.20;99.90;;;14.98;46.97;101793.56;6515978;21;99412;-34
2024/04/21 09:05:56;;;;;;;1.03;0.60;;;14.90;99.90;;;15.18;49.12;101799.00;6547312;21;93104;-36
2024/04/21 09:08:23;;;;;;;2.70;1.00;;;15.30;99.90;;;15.26;48.90;101789.91;6513245;21;94465;-35
2024/04/21 09:10:48;;;;;;;0.70;0.53;;;15.40;99.90;;;15.42;48.35;101788.41;6538927;21;95828;-34
2024/04/21 09:13:18;;;;;;;1.27;0.80;;;15.60;99.90;;;15.57;47.61;101794.94;6548270;21;94422;-34
2024/04/21 09:15:45;;;;;;;1.40;0.43;;;15.80;99.90;;;15.64;48.05;101794.69;6530349;21;93443;-37
2024/04/21 09:18:11;;;;;;;1.67;0.60;;;15.90;99.90;;;15.66;47.61;101792.81;6549772;21;96570;-34
2024/04/21 09:20:37;;;;;;;1.97;0.90;;;15.90;99.90;;;15.67;47.91;101793.69;6546046;21;117706;-34
2024/04/21 09:23:12;;;;;;;0.80;0.70;;;16.00;99.90;;;15.73;47.95;101796.97;6549236;21;109157;-36
2024/04/21 09:25:37;;;;;;;1.70;0.70;;;16.10;99.90;;;15.83;47.59;101800.13;6530829;21;93095;-36
2024/04/21 09:28:04;;;;;;;1.33;0.60;;;16.20;99.90;;;15.84;47.53;101799.22;6542432;21;100976;-36
2024/04/21 09:30:30;;;;;;;2.70;0.60;;;16.20;99.90;;;15.82;47.93;101797.53;6547839;21;94537;-36
2024/04/21 09:32:56;;;;;;;1.40;0.70;;;16.30;99.90;;;15.84;48.00;101801.00;6504395;21;95659;-35
2024/04/21 09:35:22;;;;;;;1.73;1.30;;;16.30;99.90;;;15.71;41.77;101804.13;6528108;21;99461;-36
2024/04/21 09:37:48;;;;;;;1.00;0.70;;;16.20;99.90;;;15.72;46.21;101803.22;6544802;21;107946;-34
2024/04/21 09:40:14;;;;;;;3.33;0.60;;;15.90;99.90;;;15.75;47.52;101812.84;6498495;21;102170;-32
2024/04/21 09:42:41;;;;;;;0.77;0.40;;;15.90;99.90;;;15.73;47.31;101815.59;6541771;21;95844;-36
2024/04/21 09:45:08;;;;;;;1.20;0.70;;;15.90;99.90;;;15.84;47.13;101811.66;6546626;21;93652;-35
2024/04/21 09:47:36;;;;;;;1.87;0.63;;;16.10;99.90;;;15.88;47.25;101818.56;6529411;21;106385;-36
2024/04/21 09:50:06;;;;;;;1.10;0.77;;;16.10;99.90;;;15.85;46.72;101818.69;6547032;21;99277;-36
2024/04/21 09:52:33;;;;;;;2.00;1.50;;;16.20;99.90;;;15.92;45.63;101812.22;6564648;21;100552;-36
2024/04/21 09:55:00;;;;;;;0.57;0.53;;;16.20;99.90;;;15.86;46.96;101815.09;6545962;21;93872;-36
2024/04/21 09:57:35;;;;;;;1.10;0.70;;;16.30;99.90;;;15.93;47.34;101827.25;6516543;21;95315;-36
2024/04/21 10:00:06;;;;;;;1.07;0.60;;;16.30;99.90;;;15.92;47.02;101825.53;6543792;21;94934;-36
2024/04/21 10:02:46;;;;;;;2.33;1.17;;;16.40;99.90;;;15.91;46.72;101823.75;6547019;21;101610;-35
2024/04/21 10:05:17;;;;;;;2.70;0.57;;;16.30;99.90;;;15.98;46.64;101830.59;6519593;21;93769;-35
2024/04/21 10:07:46;;;;;;;0.83;0.53;;;16.30;99.90;;;15.93;46.99;101829.91;6543490;21;99687;-36